createdAt,value
2019-02-18T00:00:41.468Z,100734.70
2019-02-18T00:03:11.029Z,100734.08
2019-02-18T00:05:40.743Z,100736.82
2019-02-18T00:08:10.299Z,100730.62
2019-02-18T00:10:39.950Z,100727.21
2019-02-18T00:13:09.594Z,100733.97
2019-02-18T00:15:39.302Z,100727.73
2019-02-18T00:18:09.021Z,100727.25
2019-02-18T00:20:38.649Z,100729.15
2019-02-18T00:23:08.444Z,100734.64
2019-02-18T00:25:38.164Z,100733.98
2019-02-18T00:28:07.781Z,100734.64
2019-02-18T00:30:37.427Z,100736.72
2019-02-18T00:33:07.079Z,100738.23
2019-02-18T00:35:36.747Z,100730.80
2019-02-18T00:38:06.404Z,100730.55
2019-02-18T00:40:35.978Z,100723.58
2019-02-18T00:43:05.671Z,100720.33
2019-02-18T00:45:35.289Z,100716.73
2019-02-18T00:48:04.998Z,100713.22
2019-02-18T00:50:34.630Z,100715.77
2019-02-18T00:53:04.266Z,100714.61
2019-02-18T00:55:33.802Z,100707.22
2019-02-18T00:58:03.482Z,100701.91
2019-02-18T01:00:33.145Z,100702.82
2019-02-18T01:03:03.028Z,100709.03
2019-02-18T01:05:32.686Z,100704.95
2019-02-18T01:08:02.367Z,100706.19
2019-02-18T01:10:32.009Z,100701.83
2019-02-18T01:13:01.688Z,100698.23
2019-02-18T01:15:31.244Z,100703.62
2019-02-18T01:18:00.800Z,100701.16
2019-02-18T01:20:30.364Z,100705.19
2019-02-18T01:22:59.970Z,100699.23
2019-02-18T01:25:29.539Z,100699.51
2019-02-18T01:27:59.125Z,100704.86
2019-02-18T01:30:28.788Z,100698.70
2019-02-18T01:32:58.433Z,100697.00
2019-02-18T01:35:28.046Z,100701.77
2019-02-18T01:37:57.714Z,100698.68
2019-02-18T01:40:27.315Z,100696.73
2019-02-18T01:42:56.845Z,100690.67
2019-02-18T01:45:26.489Z,100695.41
2019-02-18T01:47:56.012Z,100693.70
2019-02-18T01:50:25.589Z,100695.47
2019-02-18T01:52:55.198Z,100689.31
2019-02-18T01:55:24.959Z,100685.15
2019-02-18T01:57:54.715Z,100684.07
2019-02-18T02:00:24.336Z,100688.27
2019-02-18T02:02:53.969Z,100682.59
2019-02-18T02:05:23.694Z,100685.53
2019-02-18T02:07:56.274Z,100685.34
2019-02-18T02:10:24.616Z,100687.04
2019-02-18T02:13:25.613Z,100683.48
2019-02-18T02:15:55.252Z,100690.89
2019-02-18T02:18:24.967Z,100688.44
2019-02-18T02:20:54.613Z,100691.48
2019-02-18T02:23:24.193Z,100701.91
2019-02-18T02:25:53.890Z,100705.60
2019-02-18T02:28:23.620Z,100700.23
2019-02-18T02:30:53.312Z,100697.39
2019-02-18T02:33:22.885Z,100701.92
2019-02-18T02:35:52.523Z,100703.09
2019-02-18T02:38:22.101Z,100702.91
2019-02-18T02:40:51.626Z,100702.69
2019-02-18T02:43:21.153Z,100698.55
2019-02-18T02:45:50.744Z,100702.23
2019-02-18T02:48:20.394Z,100695.81
2019-02-18T02:50:49.989Z,100697.23
2019-02-18T02:53:19.679Z,100696.62
2019-02-18T02:55:49.527Z,100699.88
2019-02-18T02:58:19.145Z,100699.95
2019-02-18T03:00:48.747Z,100700.05
2019-02-18T03:03:18.359Z,100699.27
2019-02-18T03:05:47.888Z,100703.80
2019-02-18T03:08:20.543Z,100709.08
2019-02-18T03:10:48.936Z,100716.20
2019-02-18T03:13:18.537Z,100718.77
2019-02-18T03:15:48.129Z,100719.63
2019-02-18T03:18:17.684Z,100711.03
2019-02-18T03:20:47.246Z,100710.84
2019-02-18T03:23:16.918Z,100717.81
2019-02-18T03:25:48.385Z,100720.69
2019-02-18T03:28:35.308Z,100724.48
2019-02-18T03:31:08.816Z,100729.20
2019-02-18T03:33:47.591Z,100728.52
2019-02-18T03:36:17.207Z,100727.49
2019-02-18T03:38:46.818Z,100724.66
2019-02-18T03:41:16.525Z,100719.73
2019-02-18T03:43:46.277Z,100719.73
2019-02-18T03:46:16.059Z,100717.38
2019-02-18T03:48:45.591Z,100718.12
2019-02-18T03:51:15.228Z,100721.63
2019-02-18T03:53:44.866Z,100716.33
2019-02-18T03:56:14.515Z,100712.63
2019-02-18T03:58:44.046Z,100713.30
2019-02-18T04:01:13.759Z,100703.38
2019-02-18T04:03:43.302Z,100714.91
2019-02-18T04:06:12.871Z,100708.77
2019-02-18T04:08:43.423Z,100707.45
2019-02-18T04:11:13.215Z,100715.96
2019-02-18T04:13:42.748Z,100712.64
2019-02-18T04:16:12.376Z,100708.37
2019-02-18T04:18:42.075Z,100712.82
2019-02-18T04:21:11.722Z,100709.52
2019-02-18T04:23:41.289Z,100708.00
2019-02-18T04:26:10.856Z,100711.20
2019-02-18T04:28:40.493Z,100712.51
2019-02-18T04:31:10.119Z,100714.97
2019-02-18T04:33:39.675Z,100713.30
2019-02-18T04:36:09.340Z,100715.72
2019-02-18T04:38:38.879Z,100717.90
2019-02-18T04:41:08.455Z,100712.51
2019-02-18T04:43:38.145Z,100708.66
2019-02-18T04:46:07.735Z,100720.09
2019-02-18T04:48:37.371Z,100713.38
2019-02-18T04:51:06.981Z,100708.19
2019-02-18T04:53:36.688Z,100713.49
2019-02-18T04:56:06.321Z,100720.98
2019-02-18T04:58:35.997Z,100724.19
2019-02-18T05:01:05.580Z,100726.28
2019-02-18T05:03:35.211Z,100729.19
2019-02-18T05:06:04.867Z,100732.98
2019-02-18T05:08:34.486Z,100732.96
2019-02-18T05:11:04.019Z,100731.26
2019-02-18T05:13:33.612Z,100729.55
2019-02-18T05:16:03.350Z,100730.84
2019-02-18T05:18:32.898Z,100732.83
2019-02-18T05:21:02.424Z,100735.18
2019-02-18T05:23:31.993Z,100740.69
2019-02-18T05:26:01.681Z,100740.12
2019-02-18T05:28:31.295Z,100743.34
2019-02-18T05:31:00.995Z,100741.75
2019-02-18T05:33:30.619Z,100746.98
2019-02-18T05:36:00.224Z,100757.35
2019-02-18T05:38:29.958Z,100758.66
2019-02-18T05:40:59.497Z,100763.39
2019-02-18T05:43:29.060Z,100769.45
2019-02-18T05:45:58.614Z,100774.55
2019-02-18T05:48:28.301Z,100775.70
2019-02-18T05:50:59.428Z,100782.52
2019-02-18T05:53:29.002Z,100777.00
2019-02-18T05:55:58.649Z,100771.47
2019-02-18T05:58:28.165Z,100780.13
2019-02-18T06:00:57.733Z,100778.16
2019-02-18T06:03:27.333Z,100792.86
2019-02-18T06:05:56.993Z,100786.37
2019-02-18T06:08:26.662Z,100791.05
2019-02-18T06:10:56.253Z,100786.37
2019-02-18T06:13:25.870Z,100793.76
2019-02-18T06:15:55.511Z,100795.33
2019-02-18T06:18:25.193Z,100795.31
2019-02-18T06:20:54.783Z,100794.16
2019-02-18T06:23:24.408Z,100784.36
2019-02-18T06:25:54.103Z,100791.44
2019-02-18T06:28:23.808Z,100798.19
2019-02-18T06:30:54.964Z,100810.02
2019-02-18T06:33:24.881Z,100811.52
2019-02-18T06:35:54.432Z,100812.00
2019-02-18T06:38:24.090Z,100815.77
2019-02-18T06:40:53.809Z,100817.34
2019-02-18T06:43:23.400Z,100813.21
2019-02-18T06:46:08.032Z,100813.92
2019-02-18T06:48:40.776Z,100816.22
2019-02-18T06:51:10.388Z,100827.88
2019-02-18T06:53:40.066Z,100826.18
2019-02-18T06:56:09.792Z,100826.68
2019-02-18T06:58:46.238Z,100821.21
2019-02-18T07:01:40.455Z,100820.13
2019-02-18T07:04:23.767Z,100823.74
2019-02-18T07:07:24.390Z,100822.91
2019-02-18T07:09:59.002Z,100815.02
2019-02-18T07:12:47.405Z,100813.89
2019-02-18T07:15:17.053Z,100817.92
2019-02-18T07:17:46.678Z,100823.07
2019-02-18T07:20:16.431Z,100823.95
2019-02-18T07:22:45.983Z,100822.31
2019-02-18T07:25:15.540Z,100815.52
2019-02-18T07:27:45.118Z,100821.24
2019-02-18T07:30:16.216Z,100820.20
2019-02-18T07:32:45.773Z,100825.83
2019-02-18T07:35:15.345Z,100820.84
2019-02-18T07:37:44.882Z,100825.98
2019-02-18T07:40:14.641Z,100825.58
2019-02-18T07:42:44.306Z,100823.48
2019-02-18T07:45:13.975Z,100825.33
2019-02-18T07:47:43.530Z,100828.31
2019-02-18T07:50:20.242Z,100829.75
2019-02-18T07:52:44.510Z,100825.84
2019-02-18T07:55:14.057Z,100827.86
2019-02-18T07:57:43.697Z,100830.40
2019-02-18T08:00:14.103Z,100827.72
2019-02-18T08:02:43.845Z,100822.23
2019-02-18T08:05:13.522Z,100823.11
2019-02-18T08:07:43.127Z,100818.20
2019-02-18T08:10:12.752Z,100815.39
2019-02-18T08:12:42.349Z,100810.35
2019-02-18T08:15:11.996Z,100811.97
2019-02-18T08:17:41.615Z,100811.90
2019-02-18T08:20:11.283Z,100813.30
2019-02-18T08:22:40.911Z,100815.16
2019-02-18T08:25:10.695Z,100821.56
2019-02-18T08:27:40.253Z,100821.98
2019-02-18T08:30:11.447Z,100822.03
2019-02-18T08:32:40.982Z,100822.50
2019-02-18T08:35:10.776Z,100824.81
2019-02-18T08:37:40.334Z,100825.62
2019-02-18T08:40:10.083Z,100822.32
2019-02-18T08:42:39.716Z,100820.61
2019-02-18T08:45:10.989Z,100819.34
2019-02-18T08:47:40.672Z,100818.15
2019-02-18T08:50:11.524Z,100812.43
2019-02-18T08:52:41.174Z,100810.83
2019-02-18T08:55:12.140Z,100807.41
2019-02-18T08:57:41.871Z,100812.87
2019-02-18T09:00:14.269Z,100801.47
2019-02-18T09:02:43.962Z,100803.25
2019-02-18T09:05:13.008Z,100805.64
2019-02-18T09:07:42.539Z,100802.92
2019-02-18T09:10:12.603Z,100801.76
2019-02-18T09:12:42.283Z,100811.77
2019-02-18T09:15:14.169Z,100813.78
2019-02-18T09:17:43.324Z,100812.17
2019-02-18T09:20:13.018Z,100804.73
2019-02-18T09:22:49.761Z,100809.47
2019-02-18T09:25:22.270Z,100807.11
2019-02-18T09:27:52.702Z,100807.77
2019-02-18T09:30:26.279Z,100808.06
2019-02-18T09:32:56.009Z,100803.78
2019-02-18T09:35:25.753Z,100805.81
2019-02-18T09:37:55.352Z,100797.04
2019-02-18T09:40:25.181Z,100802.22
2019-02-18T09:42:54.792Z,100792.30
2019-02-18T09:45:24.330Z,100791.61
2019-02-18T09:47:54.522Z,100787.06
2019-02-18T09:50:24.130Z,100790.33
2019-02-18T09:52:53.891Z,100789.20
2019-02-18T09:55:23.563Z,100783.35
2019-02-18T09:57:53.319Z,100783.86
2019-02-18T10:00:22.890Z,100782.84
2019-02-18T10:02:52.440Z,100774.38
2019-02-18T10:05:22.056Z,100776.58
2019-02-18T10:07:51.746Z,100773.78
2019-02-18T10:10:21.407Z,100768.30
2019-02-18T10:12:51.163Z,100766.95
2019-02-18T10:15:20.957Z,100759.65
2019-02-18T10:17:50.689Z,100760.11
2019-02-18T10:20:20.338Z,100749.70
2019-02-18T10:22:50.008Z,100747.81
2019-02-18T10:25:19.630Z,100752.22
2019-02-18T10:27:49.170Z,100745.63
2019-02-18T10:30:20.755Z,100748.69
2019-02-18T10:32:50.154Z,100743.78
2019-02-18T10:35:19.761Z,100738.78
2019-02-18T10:37:55.017Z,100731.32
2019-02-18T10:40:20.784Z,100725.25
2019-02-18T10:42:50.359Z,100724.79
2019-02-18T10:45:19.899Z,100719.28
2019-02-18T10:47:49.466Z,100709.75
2019-02-18T10:50:19.088Z,100710.64
2019-02-18T10:52:48.637Z,100705.53
2019-02-18T10:55:18.555Z,100702.48
2019-02-18T10:57:48.143Z,100698.05
2019-02-18T11:00:17.849Z,100690.44
2019-02-18T11:02:47.614Z,100689.71
2019-02-18T11:05:17.335Z,100688.81
2019-02-18T11:07:47.032Z,100688.47
2019-02-18T11:10:16.724Z,100685.41
2019-02-18T11:12:47.600Z,100677.22
2019-02-18T11:15:17.447Z,100677.58
2019-02-18T11:17:47.409Z,100672.45
2019-02-18T11:20:17.059Z,100665.24
2019-02-18T11:22:46.726Z,100669.88
2019-02-18T11:25:16.525Z,100665.66
2019-02-18T11:27:46.161Z,100666.84
2019-02-18T11:30:15.871Z,100660.56
2019-02-18T11:32:45.443Z,100656.83
2019-02-18T11:35:15.107Z,100654.58
2019-02-18T11:37:45.809Z,100648.11
2019-02-18T11:40:15.804Z,100653.67
2019-02-18T11:42:45.328Z,100649.48
2019-02-18T11:45:15.048Z,100647.36
2019-02-18T11:47:44.655Z,100650.27
2019-02-18T11:50:14.476Z,100645.99
2019-02-18T11:52:44.082Z,100638.77
2019-02-18T11:55:13.781Z,100634.44
2019-02-18T11:57:43.834Z,100634.97
2019-02-18T12:00:13.712Z,100630.91
2019-02-18T12:02:43.366Z,100621.78
2019-02-18T12:05:13.039Z,100619.70
2019-02-18T12:07:42.716Z,100621.84
2019-02-18T12:10:12.288Z,100611.20
2019-02-18T12:12:42.236Z,100614.56
2019-02-18T12:15:12.187Z,100610.69
2019-02-18T12:17:41.744Z,100601.44
2019-02-18T12:20:13.752Z,100606.95
2019-02-18T12:22:43.332Z,100607.39
2019-02-18T12:25:12.974Z,100604.70
2019-02-18T12:27:42.919Z,100595.43
2019-02-18T12:30:13.515Z,100590.51
2019-02-18T12:32:43.118Z,100585.55
2019-02-18T12:35:12.707Z,100578.20
2019-02-18T12:37:42.368Z,100577.80
2019-02-18T12:40:12.028Z,100575.84
2019-02-18T12:42:42.595Z,100565.03
2019-02-18T12:45:12.498Z,100576.67
2019-02-18T12:47:42.110Z,100578.15
2019-02-18T12:50:11.819Z,100571.34
2019-02-18T12:52:41.364Z,100570.86
2019-02-18T12:55:11.016Z,100573.02
2019-02-18T12:57:41.283Z,100565.22
2019-02-18T13:00:11.840Z,100566.72
2019-02-18T13:02:44.802Z,100564.52
2019-02-18T13:05:13.108Z,100561.14
2019-02-18T13:07:42.779Z,100565.97
2019-02-18T13:10:12.510Z,100559.48
2019-02-18T13:12:42.566Z,100555.48
2019-02-18T13:15:12.642Z,100562.09
2019-02-18T13:17:42.967Z,100552.17
2019-02-18T13:20:12.733Z,100553.16
2019-02-18T13:22:42.451Z,100555.67
2019-02-18T13:25:12.149Z,100553.58
2019-02-18T13:27:41.772Z,100551.56
2019-02-18T13:30:13.356Z,100544.17
2019-02-18T13:32:42.936Z,100544.02
2019-02-18T13:35:12.523Z,100542.94
2019-02-18T13:37:42.164Z,100541.70
2019-02-18T13:40:12.351Z,100536.27
2019-02-18T13:42:42.016Z,100539.66
2019-02-18T13:45:11.585Z,100535.48
2019-02-18T13:47:41.134Z,100530.08
2019-02-18T13:50:10.842Z,100535.45
2019-02-18T13:52:40.499Z,100531.96
2019-02-18T13:55:10.318Z,100535.80
2019-02-18T13:57:40.289Z,100543.55
2019-02-18T14:00:17.807Z,100532.74
2019-02-18T14:02:47.904Z,100536.05
2019-02-18T14:05:17.857Z,100531.80
2019-02-18T14:07:47.467Z,100528.78
2019-02-18T14:10:17.419Z,100526.41
2019-02-18T14:12:46.966Z,100530.47
2019-02-18T14:15:17.115Z,100524.98
2019-02-18T14:17:46.876Z,100524.27
2019-02-18T14:20:16.534Z,100520.72
2019-02-18T14:22:46.233Z,100523.46
2019-02-18T14:25:16.156Z,100520.05
2019-02-18T14:27:45.763Z,100518.27
2019-02-18T14:30:15.909Z,100520.59
2019-02-18T14:32:45.443Z,100520.66
2019-02-18T14:35:15.209Z,100517.45
2019-02-18T14:37:44.911Z,100520.03
2019-02-18T14:40:16.518Z,100514.58
2019-02-18T14:42:46.071Z,100511.93
2019-02-18T14:45:15.941Z,100511.48
2019-02-18T14:47:45.591Z,100513.98
2019-02-18T14:50:17.386Z,100512.91
2019-02-18T14:52:47.483Z,100518.16
2019-02-18T14:55:17.174Z,100506.38
2019-02-18T14:57:46.813Z,100499.67
2019-02-18T15:00:21.476Z,100506.41
2019-02-18T15:02:52.712Z,100501.36
2019-02-18T15:05:22.361Z,100500.68
2019-02-18T15:07:51.991Z,100500.40
2019-02-18T15:10:21.684Z,100499.39
2019-02-18T15:12:51.289Z,100494.94
2019-02-18T15:15:20.926Z,100495.45
2019-02-18T15:17:50.603Z,100499.36
2019-02-18T15:20:20.545Z,100498.02
2019-02-18T15:22:50.331Z,100500.25
2019-02-18T15:25:20.075Z,100499.48
2019-02-18T15:27:49.762Z,100500.19
2019-02-18T15:30:19.319Z,100497.02
2019-02-18T15:32:48.855Z,100496.84
2019-02-18T15:35:18.586Z,100499.06
2019-02-18T15:37:48.430Z,100495.38
2019-02-18T15:40:18.975Z,100494.69
2019-02-18T15:42:48.641Z,100501.98
2019-02-18T15:45:18.276Z,100501.79
2019-02-18T15:47:47.945Z,100502.63
2019-02-18T15:50:17.506Z,100502.79
2019-02-18T15:52:47.179Z,100513.88
2019-02-18T15:55:16.887Z,100511.66
2019-02-18T15:57:46.441Z,100508.78
2019-02-18T16:00:18.537Z,100508.72
2019-02-18T16:02:48.387Z,100507.58
2019-02-18T16:05:17.973Z,100508.78
2019-02-18T16:07:47.563Z,100508.05
2019-02-18T16:10:17.136Z,100508.61
2019-02-18T16:12:50.780Z,100510.50
2019-02-18T16:15:18.088Z,100509.68
2019-02-18T16:17:47.951Z,100511.07
2019-02-18T16:20:17.583Z,100506.97
2019-02-18T16:22:47.390Z,100508.19
2019-02-18T16:25:18.772Z,100511.41
2019-02-18T16:27:48.520Z,100508.48
2019-02-18T16:30:18.089Z,100505.27
2019-02-18T16:32:47.751Z,100520.55
2019-02-18T16:35:17.385Z,100514.34
2019-02-18T16:37:46.965Z,100519.15
2019-02-18T16:40:17.436Z,100519.08
2019-02-18T16:42:46.990Z,100520.52
2019-02-18T16:45:16.559Z,100518.97
2019-02-18T16:47:49.083Z,100529.63
2019-02-18T16:50:18.870Z,100530.17
2019-02-18T16:52:48.597Z,100531.17
2019-02-18T16:55:18.346Z,100532.92
2019-02-18T16:57:47.900Z,100533.91
2019-02-18T17:00:25.337Z,100532.71
2019-02-18T17:02:54.911Z,100532.39
2019-02-18T17:05:24.519Z,100535.96
2019-02-18T17:07:54.273Z,100540.90
2019-02-18T17:10:24.041Z,100539.91
2019-02-18T17:13:07.691Z,100537.51
2019-02-18T17:15:30.600Z,100541.08
2019-02-18T17:18:00.281Z,100543.55
2019-02-18T17:20:30.051Z,100547.26
2019-02-18T17:22:59.699Z,100541.23
2019-02-18T17:25:29.672Z,100542.97
2019-02-18T17:27:59.250Z,100546.20
2019-02-18T17:30:28.800Z,100544.05
2019-02-18T17:32:58.407Z,100546.22
2019-02-18T17:35:28.097Z,100550.22
2019-02-18T17:37:57.687Z,100538.71
2019-02-18T17:40:27.640Z,100537.67
2019-02-18T17:42:57.189Z,100544.71
2019-02-18T17:45:26.839Z,100546.22
2019-02-18T17:47:56.480Z,100544.72
2019-02-18T17:50:26.269Z,100541.79
2019-02-18T17:52:55.885Z,100545.02
2019-02-18T17:55:26.518Z,100548.66
2019-02-18T17:57:56.212Z,100548.11
2019-02-18T18:00:28.330Z,100558.81
2019-02-18T18:02:57.884Z,100553.00
2019-02-18T18:05:27.605Z,100549.74
2019-02-18T18:07:57.233Z,100550.54
2019-02-18T18:10:26.934Z,100550.30
2019-02-18T18:12:56.481Z,100550.23
2019-02-18T18:15:26.083Z,100551.33
2019-02-18T18:17:55.710Z,100558.80
2019-02-18T18:20:25.350Z,100551.08
2019-02-18T18:22:55.377Z,100548.05
2019-02-18T18:25:25.068Z,100546.00
2019-02-18T18:27:54.695Z,100546.97
2019-02-18T18:30:24.290Z,100551.22
2019-02-18T18:32:53.907Z,100543.58
2019-02-18T18:35:23.483Z,100541.55
2019-02-18T18:37:53.533Z,100543.00
2019-02-18T18:40:23.093Z,100544.27
2019-02-18T18:42:52.748Z,100546.81
2019-02-18T18:45:22.432Z,100547.10
2019-02-18T18:47:52.053Z,100552.09
2019-02-18T18:50:21.718Z,100555.41
2019-02-18T18:52:51.298Z,100553.72
2019-02-18T18:55:20.825Z,100551.66
2019-02-18T18:57:50.433Z,100557.16
2019-02-18T19:00:23.337Z,100556.56
2019-02-18T19:02:52.972Z,100559.27
2019-02-18T19:05:22.890Z,100559.67
2019-02-18T19:07:52.505Z,100560.27
2019-02-18T19:10:22.085Z,100557.12
2019-02-18T19:12:51.677Z,100563.18
2019-02-18T19:15:21.264Z,100566.45
2019-02-18T19:17:50.833Z,100563.51
2019-02-18T19:20:20.431Z,100563.27
2019-02-18T19:22:50.046Z,100562.66
2019-02-18T19:25:19.781Z,100560.35
2019-02-18T19:27:49.331Z,100563.02
2019-02-18T19:30:21.860Z,100560.96
2019-02-18T19:32:51.764Z,100558.45
2019-02-18T19:35:21.285Z,100554.42
2019-02-18T19:37:50.888Z,100559.42
2019-02-18T19:40:20.563Z,100556.36
2019-02-18T19:42:50.195Z,100555.27
2019-02-18T19:45:20.634Z,100557.48
2019-02-18T19:47:50.219Z,100553.00
2019-02-18T19:50:21.219Z,100556.03
2019-02-18T19:52:51.002Z,100550.17
2019-02-18T19:55:20.568Z,100555.30
2019-02-18T19:57:50.237Z,100552.64
2019-02-18T20:00:20.107Z,100553.89
2019-02-18T20:02:49.681Z,100557.31
2019-02-18T20:05:19.248Z,100554.12
2019-02-18T20:07:48.924Z,100550.77
2019-02-18T20:10:18.647Z,100552.27
2019-02-18T20:12:48.341Z,100549.38
2019-02-18T20:15:18.148Z,100545.50
2019-02-18T20:17:47.890Z,100545.84
2019-02-18T20:20:17.467Z,100540.78
2019-02-18T20:22:47.115Z,100540.05
2019-02-18T20:25:16.755Z,100542.36
2019-02-18T20:27:46.801Z,100541.39
2019-02-18T20:30:17.694Z,100536.56
2019-02-18T20:32:47.349Z,100534.66
2019-02-18T20:35:16.942Z,100541.19
2019-02-18T20:37:46.587Z,100538.66
2019-02-18T20:40:16.282Z,100537.12
2019-02-18T20:42:45.889Z,100534.47
2019-02-18T20:45:15.484Z,100536.75
2019-02-18T20:47:45.158Z,100537.49
2019-02-18T20:50:14.826Z,100531.57
2019-02-18T20:52:44.416Z,100534.70
2019-02-18T20:55:13.986Z,100532.41
2019-02-18T20:57:43.582Z,100533.14
2019-02-18T21:00:20.474Z,100531.81
2019-02-18T21:02:50.063Z,100533.16
2019-02-18T21:05:19.680Z,100542.23
2019-02-18T21:07:49.432Z,100531.56
2019-02-18T21:10:19.275Z,100527.83
2019-02-18T21:12:48.832Z,100529.86
2019-02-18T21:15:18.501Z,100530.49
2019-02-18T21:17:48.252Z,100530.97
2019-02-18T21:20:17.848Z,100528.30
2019-02-18T21:22:47.931Z,100529.52
2019-02-18T21:25:17.716Z,100531.56
2019-02-18T21:27:47.300Z,100533.74
2019-02-18T21:30:16.891Z,100532.41
2019-02-18T21:32:46.552Z,100490.89
2019-02-18T21:35:16.176Z,100528.77
2019-02-18T21:37:46.114Z,100533.94
2019-02-18T21:40:15.671Z,100540.48
2019-02-18T21:42:45.232Z,100538.78
2019-02-18T21:45:14.875Z,100531.99
2019-02-18T21:47:44.498Z,100537.80
2019-02-18T21:50:14.145Z,100538.02
2019-02-18T21:52:43.764Z,100540.20
2019-02-18T21:55:13.363Z,100536.35
2019-02-18T21:57:43.119Z,100533.17
2019-02-18T22:00:18.323Z,100532.55
2019-02-18T22:02:47.993Z,100534.80
2019-02-18T22:05:17.829Z,100531.66
2019-02-18T22:07:47.501Z,100538.88
2019-02-18T22:10:17.067Z,100529.33
2019-02-18T22:12:46.718Z,100532.61
2019-02-18T22:15:16.420Z,100543.41
2019-02-18T22:17:46.063Z,100537.88
2019-02-18T22:20:15.997Z,100545.36
2019-02-18T22:22:45.559Z,100551.73
2019-02-18T22:25:15.260Z,100547.73
2019-02-18T22:27:44.901Z,100549.13
2019-02-18T22:30:14.577Z,100555.33
2019-02-18T22:32:44.121Z,100552.23
2019-02-18T22:35:14.065Z,100555.39
2019-02-18T22:37:43.812Z,100562.00
2019-02-18T22:40:13.421Z,100557.02
2019-02-18T22:42:43.091Z,100561.75
2019-02-18T22:45:12.750Z,100565.73
2019-02-18T22:47:42.300Z,100559.16
2019-02-18T22:50:11.893Z,100559.99
2019-02-18T22:52:41.560Z,100555.85
2019-02-18T22:55:11.245Z,100552.52
2019-02-18T22:57:40.979Z,100552.89
2019-02-18T23:00:51.420Z,100553.38
2019-02-18T23:03:21.789Z,100556.59
2019-02-18T23:05:51.366Z,100518.80
2019-02-18T23:08:20.906Z,100555.37
2019-02-18T23:10:50.587Z,100555.78
2019-02-18T23:13:20.414Z,100560.22
2019-02-18T23:15:49.977Z,100560.80
2019-02-18T23:18:19.603Z,100559.37
2019-02-18T23:20:49.192Z,100565.48
2019-02-18T23:23:18.837Z,100567.13
2019-02-18T23:25:48.583Z,100561.47
2019-02-18T23:28:18.489Z,100560.88
2019-02-18T23:30:48.075Z,100564.56
2019-02-18T23:33:17.720Z,100562.78
2019-02-18T23:35:47.418Z,100567.72
2019-02-18T23:38:17.027Z,100562.99
2019-02-18T23:40:46.636Z,100563.23
2019-02-18T23:43:16.307Z,100564.93
2019-02-18T23:45:45.905Z,100559.53
2019-02-18T23:48:15.487Z,100559.63
2019-02-18T23:50:45.137Z,100560.14
2019-02-18T23:53:14.836Z,100557.25
2019-02-18T23:55:44.465Z,100556.46
2019-02-18T23:58:14.049Z,100558.36
